createdAt,value
2022-09-06T00:05:20.095Z,21.59
2022-09-06T00:08:23.466Z,21.62
2022-09-06T00:10:45.579Z,21.59
2022-09-06T00:13:09.540Z,21.52
2022-09-06T00:15:31.720Z,21.42
2022-09-06T00:17:53.554Z,21.35
2022-09-06T00:20:15.648Z,21.37
2022-09-06T00:22:38.894Z,21.45
2022-09-06T00:25:00.802Z,21.53
2022-09-06T00:27:22.811Z,21.55
2022-09-06T00:29:44.585Z,21.58
2022-09-06T00:32:06.545Z,21.62
2022-09-06T00:34:28.795Z,21.61
2022-09-06T00:36:50.651Z,21.58
2022-09-06T00:39:12.627Z,21.58
2022-09-06T00:41:34.515Z,21.60
2022-09-06T00:43:56.787Z,21.62
2022-09-06T00:46:25.101Z,21.65
2022-09-06T00:48:56.407Z,21.67
2022-09-06T00:51:22.143Z,21.67
2022-09-06T00:53:45.080Z,21.58
2022-09-06T00:56:07.477Z,21.47
2022-09-06T00:58:29.761Z,21.37
2022-09-06T01:00:51.584Z,21.30
2022-09-06T01:03:14.302Z,21.27
2022-09-06T01:06:17.358Z,21.21
2022-09-06T01:09:01.746Z,21.09
2022-09-06T01:11:44.002Z,20.97
2022-09-06T01:14:17.816Z,20.89
2022-09-06T01:16:52.129Z,20.80
2022-09-06T01:20:02.243Z,20.72
2022-09-06T01:23:21.043Z,20.64
2022-09-06T01:26:19.944Z,20.57
2022-09-06T01:29:01.947Z,20.45
2022-09-06T01:31:52.368Z,20.40
2022-09-06T01:34:38.500Z,20.40
2022-09-06T01:37:10.766Z,20.36
2022-09-06T01:39:35.585Z,20.35
2022-09-06T01:42:00.313Z,20.36
2022-09-06T01:44:25.887Z,20.28
2022-09-06T01:47:18.067Z,20.22
2022-09-06T01:49:58.152Z,20.16
2022-09-06T01:52:41.855Z,20.10
2022-09-06T01:55:34.727Z,20.07
2022-09-06T01:58:14.965Z,19.99
2022-09-06T02:01:03.459Z,19.98
2022-09-06T02:03:51.365Z,19.96
2022-09-06T02:06:22.560Z,20.00
2022-09-06T02:08:58.332Z,20.04
2022-09-06T02:11:21.124Z,19.99
2022-09-06T02:13:54.994Z,19.88
2022-09-06T02:16:25.371Z,19.87
2022-09-06T02:19:20.043Z,19.86
2022-09-06T02:22:06.413Z,19.87
2022-09-06T02:27:13.178Z,19.80
2022-09-06T02:29:35.899Z,19.77
2022-09-06T02:32:14.400Z,19.75
2022-09-06T02:34:40.095Z,19.72
2022-09-06T02:37:02.091Z,19.71
2022-09-06T02:39:25.037Z,19.67
2022-09-06T02:41:48.273Z,19.68
2022-09-06T02:44:10.115Z,19.74
2022-09-06T02:46:32.124Z,19.77
2022-09-06T02:48:53.984Z,19.79
2022-09-06T02:51:16.037Z,19.80
2022-09-06T02:53:38.277Z,19.82
2022-09-06T02:56:00.733Z,19.82
2022-09-06T02:58:22.794Z,19.81
2022-09-06T03:00:45.017Z,19.79
2022-09-06T03:03:07.617Z,19.77
2022-09-06T03:05:30.015Z,19.77
2022-09-06T03:07:52.961Z,19.79
2022-09-06T03:10:15.213Z,19.83
2022-09-06T03:12:37.143Z,19.83
2022-09-06T03:14:58.944Z,19.85
2022-09-06T03:17:20.758Z,19.83
2022-09-06T03:19:42.518Z,19.80
2022-09-06T03:22:04.339Z,19.77
2022-09-06T03:24:26.154Z,19.76
2022-09-06T03:26:47.952Z,19.76
2022-09-06T03:29:09.754Z,19.79
2022-09-06T03:31:31.545Z,19.81
2022-09-06T03:33:53.366Z,19.84
2022-09-06T03:36:15.803Z,19.85
2022-09-06T03:38:37.610Z,19.85
2022-09-06T03:40:59.424Z,19.87
2022-09-06T03:43:24.406Z,19.85
2022-09-06T03:45:49.770Z,19.84
2022-09-06T03:48:11.642Z,19.86
2022-09-06T03:50:33.511Z,19.88
2022-09-06T03:52:55.329Z,19.89
2022-09-06T03:55:17.250Z,19.90
2022-09-06T03:57:39.098Z,19.89
2022-09-06T04:00:00.919Z,19.85
2022-09-06T04:02:22.799Z,19.83
2022-09-06T04:04:44.717Z,19.82
2022-09-06T04:07:06.596Z,19.80
2022-09-06T04:09:28.590Z,19.80
2022-09-06T04:11:50.406Z,19.78
2022-09-06T04:14:12.244Z,19.78
2022-09-06T04:16:34.217Z,19.75
2022-09-06T04:18:56.028Z,19.69
2022-09-06T04:21:17.919Z,19.62
2022-09-06T04:23:40.205Z,19.57
2022-09-06T04:26:02.644Z,19.54
2022-09-06T04:28:26.641Z,19.50
2022-09-06T04:31:02.154Z,19.44
2022-09-06T04:33:28.049Z,19.38
2022-09-06T04:35:50.409Z,19.33
2022-09-06T04:38:12.233Z,19.29
2022-09-06T04:40:34.063Z,19.23
2022-09-06T04:42:55.946Z,19.19
2022-09-06T04:45:17.853Z,19.15
2022-09-06T04:47:39.676Z,19.12
2022-09-06T04:50:01.551Z,19.08
2022-09-06T04:52:25.989Z,19.03
2022-09-06T04:54:51.383Z,19.00
2022-09-06T04:57:13.212Z,18.96
2022-09-06T04:59:35.334Z,18.92
2022-09-06T05:01:57.416Z,18.85
2022-09-06T05:04:19.390Z,18.81
2022-09-06T05:06:41.937Z,18.79
2022-09-06T05:09:03.891Z,18.77
2022-09-06T05:11:25.924Z,18.75
2022-09-06T05:13:47.941Z,18.73
2022-09-06T05:16:10.540Z,18.71
2022-09-06T05:18:33.090Z,18.69
2022-09-06T05:20:55.598Z,18.66
2022-09-06T05:23:17.819Z,18.63
2022-09-06T05:25:39.596Z,18.59
2022-09-06T05:28:01.646Z,18.55
2022-09-06T05:30:23.521Z,18.50
2022-09-06T05:32:45.417Z,18.47
2022-09-06T05:35:07.671Z,18.43
2022-09-06T05:37:29.482Z,18.39
2022-09-06T05:39:51.766Z,18.39
2022-09-06T05:42:18.559Z,18.40
2022-09-06T05:44:41.030Z,18.45
2022-09-06T05:47:03.806Z,18.50
2022-09-06T05:49:25.581Z,18.55
2022-09-06T05:51:52.038Z,18.60
2022-09-06T05:54:13.834Z,18.65
2022-09-06T05:56:35.686Z,18.69
2022-09-06T05:58:57.549Z,18.74
2022-09-06T06:01:29.458Z,18.81
2022-09-06T06:03:58.858Z,18.88
2022-09-06T06:06:24.245Z,18.94
2022-09-06T06:08:46.622Z,19.02
2022-09-06T06:11:08.507Z,19.08
2022-09-06T06:13:34.775Z,19.15
2022-09-06T06:15:56.746Z,19.23
2022-09-06T06:18:18.536Z,19.30
2022-09-06T06:20:40.328Z,19.37
2022-09-06T06:23:02.214Z,19.42
2022-09-06T06:25:26.403Z,19.50
2022-09-06T06:27:48.263Z,19.58
2022-09-06T06:30:11.697Z,19.65
2022-09-06T06:32:36.034Z,19.71
2022-09-06T06:34:57.849Z,19.80
2022-09-06T06:37:19.694Z,19.90
2022-09-06T06:39:41.552Z,20.04
2022-09-06T06:42:03.703Z,20.23
2022-09-06T06:44:36.380Z,20.44
2022-09-06T06:46:58.810Z,20.63
2022-09-06T06:49:20.602Z,20.83
2022-09-06T06:51:42.386Z,21.02
2022-09-06T06:54:05.867Z,21.19
2022-09-06T06:56:27.609Z,21.35
2022-09-06T06:58:52.983Z,21.49
2022-09-06T07:01:16.783Z,21.58
2022-09-06T07:03:38.712Z,21.65
2022-09-06T07:08:29.492Z,21.80
2022-09-06T07:10:51.401Z,21.90
2022-09-06T07:13:13.980Z,21.98
2022-09-06T07:15:35.842Z,22.04
2022-09-06T07:17:58.138Z,22.08
2022-09-06T07:20:23.232Z,22.14
2022-09-06T07:22:45.034Z,22.23
2022-09-06T07:25:09.366Z,22.37
2022-09-06T07:27:47.327Z,22.51
2022-09-06T07:30:11.456Z,22.63
2022-09-06T07:32:36.560Z,22.77
2022-09-06T07:34:58.363Z,22.89
2022-09-06T07:37:20.155Z,23.01
2022-09-06T07:39:42.072Z,23.14
2022-09-06T07:42:04.207Z,23.23
2022-09-06T07:44:26.538Z,23.32
2022-09-06T07:46:48.420Z,23.42
2022-09-06T07:49:10.292Z,23.55
2022-09-06T07:51:32.479Z,23.68
2022-09-06T07:54:07.363Z,23.81
2022-09-06T07:56:37.738Z,23.93
2022-09-06T07:58:59.728Z,24.03
2022-09-06T08:01:31.885Z,24.12
2022-09-06T08:03:54.303Z,24.20
2022-09-06T08:06:16.236Z,24.28
2022-09-06T08:11:24.699Z,24.48
2022-09-06T08:13:54.731Z,24.61
2022-09-06T08:16:17.238Z,24.73
2022-09-06T08:18:39.232Z,24.87
2022-09-06T08:21:13.490Z,24.99
2022-09-06T08:23:35.499Z,25.06
2022-09-06T08:25:59.053Z,25.17
2022-09-06T08:28:20.839Z,25.28
2022-09-06T08:30:43.459Z,25.41
2022-09-06T08:33:05.354Z,25.52
2022-09-06T08:35:27.512Z,25.58
2022-09-06T08:37:49.301Z,25.64
2022-09-06T08:40:13.119Z,25.72
2022-09-06T08:42:40.243Z,25.85
2022-09-06T08:45:04.144Z,25.96
2022-09-06T08:47:26.235Z,26.08
2022-09-06T08:50:00.893Z,26.21
2022-09-06T08:52:54.355Z,26.32
2022-09-06T08:55:54.306Z,26.40
2022-09-06T08:58:55.989Z,26.47
2022-09-06T09:01:29.998Z,26.57
2022-09-06T09:03:58.322Z,26.58
2022-09-06T09:06:20.153Z,26.65
2022-09-06T09:09:15.062Z,26.76
2022-09-06T09:11:43.824Z,26.86
2022-09-06T09:14:43.376Z,26.96
2022-09-06T09:17:22.685Z,27.04
2022-09-06T09:19:44.555Z,27.16
2022-09-06T09:22:06.399Z,27.25
2022-09-06T09:24:28.170Z,27.33
2022-09-06T09:27:03.240Z,27.38
2022-09-06T09:29:28.654Z,27.46
2022-09-06T09:31:56.499Z,27.58
2022-09-06T09:34:38.786Z,27.66
2022-09-06T09:40:36.154Z,27.73
2022-09-06T09:43:16.437Z,27.78
2022-09-06T09:45:38.335Z,27.81
2022-09-06T09:48:24.538Z,27.92
2022-09-06T09:50:46.822Z,28.03
2022-09-06T09:53:16.001Z,28.14
2022-09-06T09:55:39.755Z,28.21
2022-09-06T09:58:01.709Z,28.30
2022-09-06T10:00:40.089Z,28.44
2022-09-06T10:03:24.098Z,28.51
2022-09-06T10:06:03.816Z,28.61
2022-09-06T10:08:30.511Z,28.67
2022-09-06T10:10:52.536Z,28.74
2022-09-06T10:13:21.974Z,28.78
2022-09-06T10:15:43.999Z,28.88
2022-09-06T10:18:32.791Z,28.93
2022-09-06T10:21:19.813Z,28.97
2022-09-06T10:24:31.198Z,29.02
2022-09-06T10:26:59.198Z,29.02
2022-09-06T10:29:52.990Z,29.13
2022-09-06T10:33:00.385Z,29.23
2022-09-06T10:35:32.356Z,29.30
2022-09-06T10:38:17.243Z,29.38
2022-09-06T10:41:06.538Z,29.47
2022-09-06T10:44:14.179Z,29.50
2022-09-06T10:46:37.091Z,29.54
2022-09-06T10:48:58.893Z,29.57
2022-09-06T10:51:37.488Z,29.65
2022-09-06T10:54:16.941Z,29.67
2022-09-06T10:56:52.618Z,29.69
2022-09-06T11:00:05.446Z,29.66
2022-09-06T11:02:43.012Z,29.57
2022-09-06T11:10:49.756Z,29.85
2022-09-06T11:13:16.835Z,29.91
2022-09-06T11:16:02.994Z,29.98
2022-09-06T11:18:59.346Z,30.03
2022-09-06T11:21:27.214Z,30.17
2022-09-06T11:24:01.015Z,30.31
2022-09-06T11:26:43.524Z,30.23
2022-09-06T11:29:19.130Z,30.02
2022-09-06T11:32:34.869Z,30.06
2022-09-06T11:35:01.337Z,30.03
2022-09-06T11:37:44.834Z,30.05
2022-09-06T11:40:26.670Z,30.14
2022-09-06T11:42:49.681Z,30.21
2022-09-06T11:45:11.663Z,30.19
2022-09-06T11:47:48.063Z,30.16
2022-09-06T11:50:22.176Z,30.02
2022-09-06T11:53:00.853Z,29.94
2022-09-06T11:55:32.598Z,29.93
2022-09-06T11:58:00.004Z,29.83
2022-09-06T12:00:24.564Z,29.72
2022-09-06T12:02:46.692Z,29.73
2022-09-06T12:05:16.881Z,29.85
2022-09-06T12:08:10.388Z,29.94
2022-09-06T12:10:42.070Z,30.01
2022-09-06T12:13:40.330Z,30.12
2022-09-06T12:16:02.725Z,30.05
2022-09-06T12:18:43.366Z,29.91
2022-09-06T12:21:05.418Z,29.83
2022-09-06T12:23:36.342Z,29.96
2022-09-06T12:25:58.868Z,30.13
2022-09-06T12:28:34.731Z,30.30
2022-09-06T12:30:56.764Z,30.33
2022-09-06T12:33:33.773Z,30.30
2022-09-06T12:36:23.751Z,30.18
2022-09-06T12:39:15.518Z,30.20
2022-09-06T12:41:43.758Z,30.27
2022-09-06T12:44:07.814Z,30.32
2022-09-06T12:46:32.369Z,30.34
2022-09-06T12:49:23.350Z,30.38
2022-09-06T12:51:45.526Z,30.40
2022-09-06T12:54:28.891Z,30.43
2022-09-06T12:56:52.476Z,30.40
2022-09-06T12:59:25.275Z,30.37
2022-09-06T13:02:06.509Z,30.40
2022-09-06T13:04:46.757Z,30.47
2022-09-06T13:07:22.014Z,30.60
2022-09-06T13:09:49.267Z,30.74
2022-09-06T13:12:32.434Z,30.90
2022-09-06T13:14:59.758Z,31.05
2022-09-06T13:17:29.801Z,31.10
2022-09-06T13:19:51.754Z,31.07
2022-09-06T13:22:48.793Z,30.92
2022-09-06T13:25:21.076Z,30.78
2022-09-06T13:27:46.648Z,30.68
2022-09-06T13:30:10.849Z,30.62
2022-09-06T13:32:34.354Z,30.60
2022-09-06T13:34:59.609Z,30.52
2022-09-06T13:37:21.441Z,30.48
2022-09-06T13:39:44.330Z,30.50
2022-09-06T13:42:35.685Z,30.52
2022-09-06T13:45:01.986Z,30.54
2022-09-06T13:47:29.238Z,30.54
2022-09-06T13:49:51.965Z,30.62
2022-09-06T13:52:14.958Z,30.67
2022-09-06T13:54:36.985Z,30.66
2022-09-06T13:56:58.994Z,30.76
2022-09-06T13:59:21.201Z,30.85
2022-09-06T14:01:46.787Z,30.83
2022-09-06T14:04:14.429Z,30.87
2022-09-06T14:06:37.022Z,30.91
2022-09-06T14:09:08.069Z,30.99
2022-09-06T14:11:30.976Z,31.00
2022-09-06T14:13:52.997Z,31.03
2022-09-06T14:16:15.067Z,31.00
2022-09-06T14:18:37.048Z,30.97
2022-09-06T14:20:59.174Z,30.97
2022-09-06T14:23:22.461Z,30.98
2022-09-06T14:25:44.319Z,30.92
2022-09-06T14:28:06.338Z,30.88
2022-09-06T14:30:28.131Z,30.85
2022-09-06T14:32:49.983Z,30.83
2022-09-06T14:35:11.902Z,30.85
2022-09-06T14:37:34.910Z,30.87
2022-09-06T14:39:56.770Z,30.93
2022-09-06T14:42:18.648Z,31.03
2022-09-06T14:44:40.535Z,31.06
2022-09-06T14:47:03.491Z,31.05
2022-09-06T14:49:25.441Z,31.03
2022-09-06T14:51:47.223Z,30.98
2022-09-06T14:54:13.599Z,30.98
2022-09-06T14:56:36.549Z,30.97
2022-09-06T14:59:00.106Z,30.96
2022-09-06T15:01:27.022Z,30.88
2022-09-06T15:03:56.593Z,30.77
2022-09-06T15:06:21.656Z,30.67
2022-09-06T15:08:43.720Z,30.59
2022-09-06T15:11:08.264Z,30.58
2022-09-06T15:13:30.374Z,30.65
2022-09-06T15:15:56.180Z,30.70
2022-09-06T15:18:18.036Z,30.72
2022-09-06T15:20:40.632Z,30.75
2022-09-06T15:25:51.229Z,30.70
2022-09-06T15:28:13.176Z,30.63
2022-09-06T15:30:35.019Z,30.60
2022-09-06T15:32:56.848Z,30.53
2022-09-06T15:35:18.659Z,30.47
2022-09-06T15:37:40.524Z,30.42
2022-09-06T15:40:03.034Z,30.39
2022-09-06T15:42:24.952Z,30.33
2022-09-06T15:44:46.843Z,30.23
2022-09-06T15:47:09.128Z,30.17
2022-09-06T15:49:32.610Z,30.11
2022-09-06T15:51:56.531Z,29.96
2022-09-06T15:54:41.166Z,29.88
2022-09-06T15:57:03.797Z,29.81
2022-09-06T15:59:25.696Z,29.74
2022-09-06T16:01:47.617Z,29.70
2022-09-06T16:04:10.091Z,29.66
2022-09-06T16:06:44.174Z,29.68
2022-09-06T16:09:17.609Z,29.68
2022-09-06T16:11:39.897Z,29.61
2022-09-06T16:14:05.754Z,29.55
2022-09-06T16:16:29.439Z,29.54
2022-09-06T16:18:54.653Z,29.50
2022-09-06T16:21:23.778Z,29.45
2022-09-06T16:23:59.806Z,29.34
2022-09-06T16:26:25.072Z,29.22
2022-09-06T16:28:48.717Z,29.11
2022-09-06T16:31:11.353Z,29.00
2022-09-06T16:33:36.141Z,28.93
2022-09-06T16:36:04.320Z,28.87
2022-09-06T16:38:31.783Z,28.76
2022-09-06T16:40:53.634Z,28.64
2022-09-06T16:43:16.142Z,28.56
2022-09-06T16:45:39.760Z,28.50
2022-09-06T16:48:01.736Z,28.45
2022-09-06T16:50:23.922Z,28.39
2022-09-06T16:52:45.754Z,28.35
2022-09-06T16:55:08.230Z,28.33
2022-09-06T16:57:30.083Z,28.29
2022-09-06T16:59:52.329Z,28.24
2022-09-06T17:02:14.381Z,28.20
2022-09-06T17:04:36.263Z,28.14
2022-09-06T17:06:58.063Z,28.06
2022-09-06T17:09:20.132Z,27.97
2022-09-06T17:11:42.721Z,27.88
2022-09-06T17:14:05.053Z,27.78
2022-09-06T17:16:45.522Z,27.73
2022-09-06T17:19:08.916Z,27.66
2022-09-06T17:21:31.762Z,27.59
2022-09-06T17:23:54.327Z,27.49
2022-09-06T17:26:21.317Z,27.43
2022-09-06T17:28:43.320Z,27.38
2022-09-06T17:31:07.304Z,27.32
2022-09-06T17:33:30.666Z,27.26
2022-09-06T17:35:52.477Z,27.19
2022-09-06T17:38:16.275Z,27.14
2022-09-06T17:40:38.829Z,27.06
2022-09-06T17:43:00.787Z,27.00
2022-09-06T17:45:22.896Z,26.97
2022-09-06T17:47:44.741Z,26.91
2022-09-06T17:50:07.006Z,26.86
2022-09-06T17:52:29.761Z,26.80
2022-09-06T17:54:52.182Z,26.72
2022-09-06T17:57:14.046Z,26.62
2022-09-06T17:59:36.324Z,26.56
2022-09-06T18:01:58.211Z,26.51
2022-09-06T18:04:20.032Z,26.47
2022-09-06T18:06:46.334Z,26.44
2022-09-06T18:09:14.801Z,26.40
2022-09-06T18:11:39.725Z,26.36
2022-09-06T18:14:09.015Z,26.30
2022-09-06T18:16:34.114Z,26.25
2022-09-06T18:19:00.227Z,26.21
2022-09-06T18:21:24.134Z,26.17
2022-09-06T18:23:46.493Z,26.15
2022-09-06T18:26:09.130Z,26.12
2022-09-06T18:28:32.896Z,26.06
2022-09-06T18:31:03.713Z,26.03
2022-09-06T18:33:26.803Z,25.97
2022-09-06T18:35:50.501Z,25.94
2022-09-06T18:38:12.760Z,25.90
2022-09-06T18:40:34.645Z,25.88
2022-09-06T18:42:56.444Z,25.83
2022-09-06T18:45:18.320Z,25.78
2022-09-06T18:47:40.199Z,25.72
2022-09-06T18:50:04.358Z,25.69
2022-09-06T18:52:26.348Z,25.62
2022-09-06T18:54:49.400Z,25.58
2022-09-06T18:57:11.787Z,25.55
2022-09-06T18:59:33.878Z,25.54
2022-09-06T19:01:55.972Z,25.51
2022-09-06T19:04:17.932Z,25.48
2022-09-06T19:06:43.062Z,25.45
2022-09-06T19:09:10.091Z,25.40
2022-09-06T19:11:33.218Z,25.36
2022-09-06T19:13:57.877Z,25.33
2022-09-06T19:16:22.254Z,25.29
2022-09-06T19:18:44.207Z,25.22
2022-09-06T19:21:17.387Z,25.11
2022-09-06T19:23:48.190Z,25.02
2022-09-06T19:26:16.906Z,24.97
2022-09-06T19:28:40.237Z,24.97
2022-09-06T19:31:13.441Z,24.97
2022-09-06T19:33:36.390Z,24.94
2022-09-06T19:36:10.941Z,24.93
2022-09-06T19:38:52.707Z,24.94
2022-09-06T19:41:17.035Z,24.95
2022-09-06T19:43:39.851Z,24.92
2022-09-06T19:46:08.362Z,24.93
2022-09-06T19:48:31.809Z,24.94
2022-09-06T19:50:53.844Z,24.92
2022-09-06T19:53:15.707Z,24.88
2022-09-06T19:55:37.900Z,24.84
2022-09-06T19:58:01.811Z,24.83
2022-09-06T20:00:23.807Z,24.76
2022-09-06T20:02:45.771Z,24.73
2022-09-06T20:05:08.118Z,24.71
2022-09-06T20:07:29.945Z,24.68
2022-09-06T20:09:52.691Z,24.67
2022-09-06T20:12:14.694Z,24.70
2022-09-06T20:14:36.534Z,24.71
2022-09-06T20:17:16.439Z,24.70
2022-09-06T20:19:40.623Z,24.67
2022-09-06T20:22:02.982Z,24.60
2022-09-06T20:24:24.999Z,24.53
2022-09-06T20:26:47.879Z,24.48
2022-09-06T20:29:09.896Z,24.41
2022-09-06T20:31:33.625Z,24.37
2022-09-06T20:33:56.327Z,24.32
2022-09-06T20:36:19.429Z,24.29
2022-09-06T20:38:44.635Z,24.27
2022-09-06T20:41:18.297Z,24.26
2022-09-06T20:43:41.418Z,24.20
2022-09-06T20:46:17.166Z,24.16
2022-09-06T20:48:44.208Z,24.13
2022-09-06T20:51:11.008Z,24.09
2022-09-06T20:53:37.761Z,24.09
2022-09-06T20:56:04.579Z,24.06
2022-09-06T20:58:27.342Z,24.04
2022-09-06T21:00:49.377Z,24.04
2022-09-06T21:03:11.384Z,24.00
2022-09-06T21:05:33.157Z,23.98
2022-09-06T21:07:55.299Z,23.98
2022-09-06T21:10:17.258Z,23.97
2022-09-06T21:12:39.213Z,23.96
2022-09-06T21:15:01.005Z,23.95
2022-09-06T21:17:22.931Z,23.93
2022-09-06T21:19:44.790Z,23.94
2022-09-06T21:22:06.760Z,23.96
2022-09-06T21:24:28.791Z,23.96
2022-09-06T21:26:50.714Z,23.96
2022-09-06T21:29:12.627Z,23.97
2022-09-06T21:31:37.167Z,23.97
2022-09-06T21:34:03.774Z,23.98
2022-09-06T21:36:30.131Z,23.98
2022-09-06T21:39:01.251Z,24.03
2022-09-06T21:41:23.980Z,24.03
2022-09-06T21:43:46.940Z,24.05
2022-09-06T21:46:15.469Z,24.07
2022-09-06T21:48:43.834Z,24.08
2022-09-06T21:51:13.026Z,24.05
2022-09-06T21:53:36.628Z,24.03
2022-09-06T21:56:03.663Z,24.05
2022-09-06T21:58:25.464Z,24.06
2022-09-06T22:00:53.279Z,24.08
2022-09-06T22:03:15.372Z,24.07
2022-09-06T22:05:37.249Z,24.08
2022-09-06T22:07:59.107Z,24.10
2022-09-06T22:10:24.160Z,24.13
2022-09-06T22:12:46.092Z,24.14
2022-09-06T22:15:10.628Z,24.04
2022-09-06T22:17:32.404Z,23.88
2022-09-06T22:19:54.264Z,23.74
2022-09-06T22:22:16.258Z,23.62
2022-09-06T22:24:38.138Z,23.48
2022-09-06T22:26:59.961Z,23.40
2022-09-06T22:29:22.384Z,23.29
2022-09-06T22:31:44.423Z,23.22
2022-09-06T22:34:07.924Z,23.16
2022-09-06T22:36:30.120Z,23.13
2022-09-06T22:38:57.321Z,23.11
2022-09-06T22:41:19.611Z,23.10
2022-09-06T22:43:41.402Z,23.11
2022-09-06T22:46:07.499Z,23.07
2022-09-06T22:48:29.497Z,23.05
2022-09-06T22:50:51.456Z,22.99
2022-09-06T22:53:13.379Z,22.93
2022-09-06T22:55:36.412Z,22.90
2022-09-06T22:57:58.319Z,22.77
2022-09-06T23:00:20.170Z,22.62
2022-09-06T23:02:42.005Z,22.41
2022-09-06T23:05:04.458Z,22.19
2022-09-06T23:07:26.348Z,22.10
2022-09-06T23:09:48.265Z,21.97
2022-09-06T23:12:10.095Z,21.83
2022-09-06T23:14:31.887Z,21.72
2022-09-06T23:16:53.672Z,21.58
2022-09-06T23:19:15.685Z,21.47
2022-09-06T23:21:37.516Z,21.40
2022-09-06T23:23:59.407Z,21.36
2022-09-06T23:26:28.295Z,21.37
2022-09-06T23:28:51.861Z,21.32
2022-09-06T23:31:16.860Z,21.27
2022-09-06T23:33:39.188Z,21.27
2022-09-06T23:36:01.131Z,21.30
2022-09-06T23:38:23.152Z,21.30
2022-09-06T23:40:44.952Z,21.28
2022-09-06T23:43:06.865Z,21.30
2022-09-06T23:45:28.905Z,21.31
2022-09-06T23:47:50.713Z,21.27
2022-09-06T23:50:12.576Z,21.15
2022-09-06T23:52:34.358Z,21.09
2022-09-06T23:54:56.185Z,21.04
2022-09-06T23:57:18.015Z,20.94
2022-09-06T23:59:39.850Z,20.87
